Date,TemperatureHighF,TemperatureAvgF,TemperatureLowF,DewpointHighF,DewpointAvgF,DewpointLowF,HumidityHigh,HumidityAvg,HumidityLow,PressureMaxIn,PressureMinIn,WindSpeedMaxMPH,WindSpeedAvgMPH,GustSpeedMaxMPH,PrecipitationSumIn
2013-7-1,63.0,55.9,53.0,54.0,51.3,50.0,94,85,69,29.87,29.81,14,4,14,0.00
2013-7-2,62.0,55.7,53.0,52.0,51.2,50.0,94,85,71,29.93,29.84,15,6,15,0.00
2013-7-3,63.0,57.5,53.0,54.0,51.9,50.0,94,82,69,29.93,29.78,11,4,13,0.00
2013-7-4,62.0,57.7,54.0,53.0,51.1,47.0,90,79,69,29.78,29.69,12,4,12,0.00
2013-7-5,58.0,54.3,52.0,51.0,49.5,48.0,93,84,72,29.81,29.72,17,6,17,0.00
2013-7-6,58.0,54.6,52.0,51.0,49.6,48.0,93,83,74,29.81,29.75,19,7,19,0.00
2013-7-7,59.0,55.1,52.0,52.0,50.1,49.0,93,84,73,29.87,29.78,13,5,15,0.00
2013-7-8,60.0,55.0,52.0,52.0,50.4,49.0,93,85,72,29.99,29.87,13,5,13,0.00
2013-7-9,62.0,55.6,52.0,53.0,50.4,48.0,94,83,69,30.02,29.93,12,4,12,0.00
2013-7-10,59.0,53.7,52.0,51.0,48.0,-99.9,93,84,74,29.99,29.90,13,5,15,0.00
2013-7-11,57.0,53.6,52.0,51.0,49.8,48.0,93,87,75,29.96,29.90,14,6,17,0.00
2013-7-12,58.0,54.1,52.0,51.0,49.6,48.0,93,85,73,29.96,29.87,13,6,14,0.00
2013-7-13,59.0,54.8,52.0,51.0,49.5,47.0,94,83,71,29.96,29.90,13,5,13,0.00
2013-7-14,57.0,54.2,52.0,51.0,49.8,49.0,94,85,75,30.02,29.90,14,5,16,0.00
2013-7-15,57.0,53.6,52.0,51.0,49.8,49.0,93,87,75,29.93,29.84,10,5,13,0.00
2013-7-16,60.0,55.0,53.0,51.0,50.1,49.0,92,84,71,30.02,29.87,9,4,13,0.00
2013-7-17,59.0,55.1,53.0,51.0,50.4,49.0,91,84,73,30.11,30.02,12,4,14,0.00
2013-7-18,59.0,54.6,53.0,51.0,50.2,49.0,92,85,73,30.08,29.96,11,4,13,0.00
2013-7-19,58.0,54.3,52.0,51.0,49.9,48.0,92,85,75,29.96,29.84,16,5,17,0.00
2013-7-20,58.0,53.2,52.0,50.0,48.4,-99.9,94,86,73,29.87,29.78,17,7,17,0.00
2013-7-21,58.0,54.2,52.0,51.0,50.1,49.0,94,86,74,29.90,29.78,17,7,17,0.00
2013-7-22,59.0,54.5,53.0,52.0,51.1,50.0,94,89,75,29.96,29.90,16,5,16,0.00
2013-7-23,60.0,55.9,53.0,53.0,50.9,49.0,93,84,72,30.02,29.93,10,4,10,0.00
2013-7-24,61.0,55.4,52.0,52.0,50.8,49.0,94,85,70,29.99,29.90,9,3,11,0.00
2013-7-25,59.0,54.4,52.0,51.0,50.1,49.0,92,86,73,30.02,29.93,13,5,13,0.00
2013-7-26,58.0,54.2,52.0,51.0,50.6,50.0,93,88,76,30.11,30.02,13,5,13,0.00
2013-7-27,58.0,54.6,53.0,51.0,50.7,50.0,93,87,75,30.05,29.90,13,6,13,0.00
2013-7-28,58.0,54.3,53.0,54.0,50.7,49.0,94,88,75,29.90,29.84,17,7,17,0.00
2013-7-29,61.0,56.9,55.0,55.0,53.7,53.0,94,89,80,30.02,29.84,21,7,21,0.00
2013-7-30,61.0,57.1,55.0,55.0,53.7,53.0,94,88,80,30.11,30.02,15,6,15,0.00
2013-7-31,61.0,57.6,55.0,55.0,53.7,52.0,93,87,80,30.11,30.02,15,6,15,0.00